sensor_id;sensor_type;location;lat;lon;timestamp;P1;durP1;ratioP1;P2;durP2;ratioP2
47545;SDS011;50104;52.002;4.688;2023-04-03T00:04:11;2.73;;;1.40;;
47545;SDS011;50104;52.002;4.688;2023-04-03T00:09:12;1.63;;;1.20;;
47545;SDS011;50104;52.002;4.688;2023-04-03T00:14:13;1.50;;;1.30;;
47545;SDS011;50104;52.002;4.688;2023-04-03T00:19:13;4.13;;;1.45;;
47545;SDS011;50104;52.002;4.688;2023-04-03T00:24:14;3.17;;;1.27;;
47545;SDS011;50104;52.002;4.688;2023-04-03T00:29:15;4.37;;;1.20;;
47545;SDS011;50104;52.002;4.688;2023-04-03T00:34:16;1.53;;;1.20;;
47545;SDS011;50104;52.002;4.688;2023-04-03T00:39:17;1.65;;;1.35;;
47545;SDS011;50104;52.002;4.688;2023-04-03T00:44:19;1.00;;;1.00;;
47545;SDS011;50104;52.002;4.688;2023-04-03T00:49:35;3.70;;;1.17;;
47545;SDS011;50104;52.002;4.688;2023-04-03T00:54:38;1.73;;;1.63;;
47545;SDS011;50104;52.002;4.688;2023-04-03T00:59:42;1.60;;;1.27;;
47545;SDS011;50104;52.002;4.688;2023-04-03T01:04:48;3.58;;;1.75;;
47545;SDS011;50104;52.002;4.688;2023-04-03T01:09:50;2.27;;;1.17;;
47545;SDS011;50104;52.002;4.688;2023-04-03T01:14:57;4.50;;;1.52;;
47545;SDS011;50104;52.002;4.688;2023-04-03T01:25:11;3.67;;;1.70;;
47545;SDS011;50104;52.002;4.688;2023-04-03T01:30:12;4.27;;;1.70;;
47545;SDS011;50104;52.002;4.688;2023-04-03T01:35:17;2.87;;;1.77;;
47545;SDS011;50104;52.002;4.688;2023-04-03T01:40:18;2.20;;;1.13;;
47545;SDS011;50104;52.002;4.688;2023-04-03T01:45:19;2.07;;;1.40;;
47545;SDS011;50104;52.002;4.688;2023-04-03T01:50:20;2.00;;;1.80;;
47545;SDS011;50104;52.002;4.688;2023-04-03T01:55:21;2.43;;;1.40;;
47545;SDS011;50104;52.002;4.688;2023-04-03T02:00:22;2.37;;;1.27;;
47545;SDS011;50104;52.002;4.688;2023-04-03T02:05:23;1.67;;;1.40;;
47545;SDS011;50104;52.002;4.688;2023-04-03T02:10:24;3.03;;;1.50;;
47545;SDS011;50104;52.002;4.688;2023-04-03T02:15:25;3.27;;;1.60;;
47545;SDS011;50104;52.002;4.688;2023-04-03T02:20:26;2.60;;;1.30;;
47545;SDS011;50104;52.002;4.688;2023-04-03T02:25:27;3.80;;;1.80;;
47545;SDS011;50104;52.002;4.688;2023-04-03T02:30:28;2.00;;;1.47;;
47545;SDS011;50104;52.002;4.688;2023-04-03T02:35:29;1.97;;;1.70;;
47545;SDS011;50104;52.002;4.688;2023-04-03T02:40:30;4.20;;;1.53;;
47545;SDS011;50104;52.002;4.688;2023-04-03T02:45:30;4.40;;;1.70;;
47545;SDS011;50104;52.002;4.688;2023-04-03T02:50:31;2.40;;;1.60;;
47545;SDS011;50104;52.002;4.688;2023-04-03T02:55:32;1.60;;;1.50;;
47545;SDS011;50104;52.002;4.688;2023-04-03T03:00:33;2.60;;;1.70;;
47545;SDS011;50104;52.002;4.688;2023-04-03T03:05:34;1.47;;;1.30;;
47545;SDS011;50104;52.002;4.688;2023-04-03T03:10:36;1.50;;;1.40;;
47545;SDS011;50104;52.002;4.688;2023-04-03T03:15:37;4.97;;;1.90;;
47545;SDS011;50104;52.002;4.688;2023-04-03T03:20:37;2.23;;;1.77;;
47545;SDS011;50104;52.002;4.688;2023-04-03T03:25:39;2.27;;;1.40;;
47545;SDS011;50104;52.002;4.688;2023-04-03T03:30:40;2.13;;;1.70;;
47545;SDS011;50104;52.002;4.688;2023-04-03T03:35:41;1.77;;;1.60;;
47545;SDS011;50104;52.002;4.688;2023-04-03T03:40:42;3.57;;;1.60;;
47545;SDS011;50104;52.002;4.688;2023-04-03T03:45:43;2.90;;;1.60;;
47545;SDS011;50104;52.002;4.688;2023-04-03T03:50:44;3.73;;;1.60;;
47545;SDS011;50104;52.002;4.688;2023-04-03T03:55:45;2.97;;;1.50;;
47545;SDS011;50104;52.002;4.688;2023-04-03T04:00:46;2.37;;;1.37;;
47545;SDS011;50104;52.002;4.688;2023-04-03T04:05:47;1.93;;;1.60;;
47545;SDS011;50104;52.002;4.688;2023-04-03T04:10:48;1.93;;;1.73;;
47545;SDS011;50104;52.002;4.688;2023-04-03T04:15:49;3.73;;;1.90;;
47545;SDS011;50104;52.002;4.688;2023-04-03T04:20:50;3.13;;;1.90;;
47545;SDS011;50104;52.002;4.688;2023-04-03T04:25:51;5.33;;;1.80;;
47545;SDS011;50104;52.002;4.688;2023-04-03T04:30:52;3.13;;;1.97;;
47545;SDS011;50104;52.002;4.688;2023-04-03T04:35:52;3.33;;;1.57;;
47545;SDS011;50104;52.002;4.688;2023-04-03T04:40:53;2.20;;;1.73;;
47545;SDS011;50104;52.002;4.688;2023-04-03T04:46:04;2.87;;;1.80;;
47545;SDS011;50104;52.002;4.688;2023-04-03T04:51:07;2.77;;;1.87;;
47545;SDS011;50104;52.002;4.688;2023-04-03T04:56:08;3.77;;;1.90;;
47545;SDS011;50104;52.002;4.688;2023-04-03T05:01:10;9.97;;;2.60;;
47545;SDS011;50104;52.002;4.688;2023-04-03T05:06:11;2.57;;;1.77;;
47545;SDS011;50104;52.002;4.688;2023-04-03T05:11:12;4.37;;;2.20;;
47545;SDS011;50104;52.002;4.688;2023-04-03T05:16:12;4.73;;;2.20;;
47545;SDS011;50104;52.002;4.688;2023-04-03T05:21:13;2.60;;;1.40;;
47545;SDS011;50104;52.002;4.688;2023-04-03T05:26:14;5.93;;;1.93;;
47545;SDS011;50104;52.002;4.688;2023-04-03T05:31:15;2.40;;;2.00;;
47545;SDS011;50104;52.002;4.688;2023-04-03T05:36:16;4.30;;;2.00;;
47545;SDS011;50104;52.002;4.688;2023-04-03T05:41:17;5.97;;;2.50;;
47545;SDS011;50104;52.002;4.688;2023-04-03T05:46:19;3.87;;;2.10;;
47545;SDS011;50104;52.002;4.688;2023-04-03T05:51:25;3.73;;;2.40;;
47545;SDS011;50104;52.002;4.688;2023-04-03T05:56:30;3.83;;;2.03;;
47545;SDS011;50104;52.002;4.688;2023-04-03T06:01:31;3.20;;;2.30;;
47545;SDS011;50104;52.002;4.688;2023-04-03T06:11:56;3.80;;;2.40;;
47545;SDS011;50104;52.002;4.688;2023-04-03T06:16:58;3.87;;;2.20;;
47545;SDS011;50104;52.002;4.688;2023-04-03T06:22:00;4.30;;;2.23;;
47545;SDS011;50104;52.002;4.688;2023-04-03T06:27:00;6.50;;;2.20;;
47545;SDS011;50104;52.002;4.688;2023-04-03T06:32:01;3.80;;;2.30;;
47545;SDS011;50104;52.002;4.688;2023-04-03T06:37:02;4.37;;;2.20;;
47545;SDS011;50104;52.002;4.688;2023-04-03T06:42:03;5.03;;;2.33;;
47545;SDS011;50104;52.002;4.688;2023-04-03T06:47:04;4.07;;;2.20;;
47545;SDS011;50104;52.002;4.688;2023-04-03T06:52:05;3.30;;;2.23;;
47545;SDS011;50104;52.002;4.688;2023-04-03T06:57:06;5.70;;;2.03;;
47545;SDS011;50104;52.002;4.688;2023-04-03T07:02:09;4.20;;;2.07;;
47545;SDS011;50104;52.002;4.688;2023-04-03T07:07:11;3.77;;;2.10;;
47545;SDS011;50104;52.002;4.688;2023-04-03T07:12:12;3.70;;;2.17;;
47545;SDS011;50104;52.002;4.688;2023-04-03T07:17:13;5.43;;;2.57;;
47545;SDS011;50104;52.002;4.688;2023-04-03T07:22:15;6.07;;;2.30;;
47545;SDS011;50104;52.002;4.688;2023-04-03T07:27:15;4.37;;;2.10;;
47545;SDS011;50104;52.002;4.688;2023-04-03T07:32:17;6.40;;;2.47;;
47545;SDS011;50104;52.002;4.688;2023-04-03T07:37:18;4.47;;;2.73;;
47545;SDS011;50104;52.002;4.688;2023-04-03T07:42:19;4.13;;;2.10;;
47545;SDS011;50104;52.002;4.688;2023-04-03T07:47:20;4.70;;;1.97;;
47545;SDS011;50104;52.002;4.688;2023-04-03T07:52:21;3.80;;;2.07;;
47545;SDS011;50104;52.002;4.688;2023-04-03T07:57:22;3.10;;;1.90;;
47545;SDS011;50104;52.002;4.688;2023-04-03T08:02:23;8.93;;;2.10;;
47545;SDS011;50104;52.002;4.688;2023-04-03T08:07:24;3.87;;;1.90;;
47545;SDS011;50104;52.002;4.688;2023-04-03T08:12:25;6.65;;;1.98;;
47545;SDS011;50104;52.002;4.688;2023-04-03T08:17:28;3.13;;;1.50;;
47545;SDS011;50104;52.002;4.688;2023-04-03T08:22:29;4.10;;;1.70;;
47545;SDS011;50104;52.002;4.688;2023-04-03T08:27:30;3.28;;;2.15;;
47545;SDS011;50104;52.002;4.688;2023-04-03T08:32:33;1.85;;;1.50;;
47545;SDS011;50104;52.002;4.688;2023-04-03T08:37:35;4.57;;;1.73;;
47545;SDS011;50104;52.002;4.688;2023-04-03T08:42:51;4.40;;;1.80;;
47545;SDS011;50104;52.002;4.688;2023-04-03T08:48:27;3.47;;;2.28;;
47545;SDS011;50104;52.002;4.688;2023-04-03T08:53:33;3.40;;;1.83;;
47545;SDS011;50104;52.002;4.688;2023-04-03T08:58:53;5.53;;;1.45;;
47545;SDS011;50104;52.002;4.688;2023-04-03T09:04:00;3.63;;;1.50;;
47545;SDS011;50104;52.002;4.688;2023-04-03T09:19:40;3.42;;;1.33;;
47545;SDS011;50104;52.002;4.688;2023-04-03T09:30:19;3.67;;;1.50;;
47545;SDS011;50104;52.002;4.688;2023-04-03T09:40:37;2.17;;;1.20;;
47545;SDS011;50104;52.002;4.688;2023-04-03T09:45:44;2.72;;;0.80;;
47545;SDS011;50104;52.002;4.688;2023-04-03T09:55:53;2.67;;;1.13;;
47545;SDS011;50104;52.002;4.688;2023-04-03T10:01:00;2.28;;;1.17;;
47545;SDS011;50104;52.002;4.688;2023-04-03T10:06:03;3.33;;;1.00;;
47545;SDS011;50104;52.002;4.688;2023-04-03T10:11:22;1.38;;;0.95;;
47545;SDS011;50104;52.002;4.688;2023-04-03T10:27:39;0.50;;;0.50;;
47545;SDS011;50104;52.002;4.688;2023-04-03T10:38:10;0.55;;;0.55;;
47545;SDS011;50104;52.002;4.688;2023-04-03T10:59:37;0.80;;;0.80;;
47545;SDS011;50104;52.002;4.688;2023-04-03T11:04:46;0.57;;;0.47;;
47545;SDS011;50104;52.002;4.688;2023-04-03T11:14:58;0.95;;;0.40;;
47545;SDS011;50104;52.002;4.688;2023-04-03T11:20:23;1.27;;;0.50;;
47545;SDS011;50104;52.002;4.688;2023-04-03T11:25:33;0.35;;;0.35;;
47545;SDS011;50104;52.002;4.688;2023-04-03T11:36:12;2.92;;;0.52;;
47545;SDS011;50104;52.002;4.688;2023-04-03T11:41:27;0.85;;;0.60;;
47545;SDS011;50104;52.002;4.688;2023-04-03T11:51:57;0.40;;;0.40;;
47545;SDS011;50104;52.002;4.688;2023-04-03T11:56:58;0.45;;;0.30;;
47545;SDS011;50104;52.002;4.688;2023-04-03T12:01:59;0.40;;;0.40;;
47545;SDS011;50104;52.002;4.688;2023-04-03T12:07:13;0.43;;;0.43;;
47545;SDS011;50104;52.002;4.688;2023-04-03T12:12:35;0.52;;;0.52;;
47545;SDS011;50104;52.002;4.688;2023-04-03T12:17:38;0.47;;;0.47;;
47545;SDS011;50104;52.002;4.688;2023-04-03T12:22:40;1.52;;;0.63;;
47545;SDS011;50104;52.002;4.688;2023-04-03T12:28:28;2.60;;;0.60;;
47545;SDS011;50104;52.002;4.688;2023-04-03T12:39:34;0.52;;;0.50;;
47545;SDS011;50104;52.002;4.688;2023-04-03T12:44:54;3.95;;;0.73;;
47545;SDS011;50104;52.002;4.688;2023-04-03T12:50:16;2.13;;;0.80;;
47545;SDS011;50104;52.002;4.688;2023-04-03T12:55:24;0.80;;;0.70;;
47545;SDS011;50104;52.002;4.688;2023-04-03T13:05:34;0.88;;;0.60;;
47545;SDS011;50104;52.002;4.688;2023-04-03T13:16:09;2.17;;;1.23;;
47545;SDS011;50104;52.002;4.688;2023-04-03T13:21:15;5.00;;;1.23;;
47545;SDS011;50104;52.002;4.688;2023-04-03T13:26:24;1.63;;;0.60;;
47545;SDS011;50104;52.002;4.688;2023-04-03T13:31:33;1.60;;;0.80;;
47545;SDS011;50104;52.002;4.688;2023-04-03T13:36:38;1.08;;;0.98;;
47545;SDS011;50104;52.002;4.688;2023-04-03T13:41:52;1.30;;;0.70;;
47545;SDS011;50104;52.002;4.688;2023-04-03T13:52:41;1.30;;;0.80;;
47545;SDS011;50104;52.002;4.688;2023-04-03T13:57:57;1.85;;;0.95;;
47545;SDS011;50104;52.002;4.688;2023-04-03T14:03:27;1.63;;;1.02;;
47545;SDS011;50104;52.002;4.688;2023-04-03T14:08:44;2.38;;;0.82;;
47545;SDS011;50104;52.002;4.688;2023-04-03T14:13:45;2.38;;;0.75;;
47545;SDS011;50104;52.002;4.688;2023-04-03T14:18:48;1.52;;;0.70;;
47545;SDS011;50104;52.002;4.688;2023-04-03T14:23:51;2.72;;;0.73;;
47545;SDS011;50104;52.002;4.688;2023-04-03T14:28:53;1.77;;;0.85;;
47545;SDS011;50104;52.002;4.688;2023-04-03T14:33:55;1.70;;;0.88;;
47545;SDS011;50104;52.002;4.688;2023-04-03T14:38:57;1.80;;;0.90;;
47545;SDS011;50104;52.002;4.688;2023-04-03T14:43:59;1.08;;;0.60;;
47545;SDS011;50104;52.002;4.688;2023-04-03T14:49:00;3.80;;;0.70;;
47545;SDS011;50104;52.002;4.688;2023-04-03T14:54:01;1.45;;;1.00;;
47545;SDS011;50104;52.002;4.688;2023-04-03T14:59:02;1.80;;;0.73;;
47545;SDS011;50104;52.002;4.688;2023-04-03T15:04:09;2.92;;;0.90;;
47545;SDS011;50104;52.002;4.688;2023-04-03T15:14:20;1.67;;;1.02;;
47545;SDS011;50104;52.002;4.688;2023-04-03T15:19:23;2.20;;;0.90;;
47545;SDS011;50104;52.002;4.688;2023-04-03T15:24:24;2.65;;;1.20;;
47545;SDS011;50104;52.002;4.688;2023-04-03T15:29:25;4.15;;;1.45;;
47545;SDS011;50104;52.002;4.688;2023-04-03T15:34:25;2.05;;;1.02;;
47545;SDS011;50104;52.002;4.688;2023-04-03T15:39:27;1.33;;;0.90;;
47545;SDS011;50104;52.002;4.688;2023-04-03T15:44:28;1.13;;;0.90;;
47545;SDS011;50104;52.002;4.688;2023-04-03T15:49:29;1.05;;;0.90;;
47545;SDS011;50104;52.002;4.688;2023-04-03T15:54:33;1.55;;;1.00;;
47545;SDS011;50104;52.002;4.688;2023-04-03T15:59:33;2.03;;;0.88;;
47545;SDS011;50104;52.002;4.688;2023-04-03T16:04:35;2.88;;;0.85;;
47545;SDS011;50104;52.002;4.688;2023-04-03T16:09:36;1.25;;;0.98;;
47545;SDS011;50104;52.002;4.688;2023-04-03T16:14:37;2.05;;;0.98;;
47545;SDS011;50104;52.002;4.688;2023-04-03T16:19:38;3.70;;;1.10;;
47545;SDS011;50104;52.002;4.688;2023-04-03T16:24:39;3.17;;;1.00;;
47545;SDS011;50104;52.002;4.688;2023-04-03T16:29:40;1.95;;;1.00;;
47545;SDS011;50104;52.002;4.688;2023-04-03T16:34:41;4.75;;;1.40;;
47545;SDS011;50104;52.002;4.688;2023-04-03T16:39:42;1.80;;;1.30;;
47545;SDS011;50104;52.002;4.688;2023-04-03T16:44:43;1.27;;;1.00;;
47545;SDS011;50104;52.002;4.688;2023-04-03T16:49:44;2.20;;;1.10;;
47545;SDS011;50104;52.002;4.688;2023-04-03T16:54:46;1.42;;;1.25;;
47545;SDS011;50104;52.002;4.688;2023-04-03T16:59:47;5.00;;;1.48;;
47545;SDS011;50104;52.002;4.688;2023-04-03T17:04:50;1.77;;;1.10;;
47545;SDS011;50104;52.002;4.688;2023-04-03T17:09:52;2.92;;;1.27;;
47545;SDS011;50104;52.002;4.688;2023-04-03T17:14:53;3.53;;;1.60;;
47545;SDS011;50104;52.002;4.688;2023-04-03T17:19:54;1.85;;;0.88;;
47545;SDS011;50104;52.002;4.688;2023-04-03T17:24:56;1.35;;;0.93;;
47545;SDS011;50104;52.002;4.688;2023-04-03T17:29:56;2.75;;;1.05;;
47545;SDS011;50104;52.002;4.688;2023-04-03T17:34:58;2.25;;;1.00;;
47545;SDS011;50104;52.002;4.688;2023-04-03T17:39:59;3.60;;;1.30;;
47545;SDS011;50104;52.002;4.688;2023-04-03T17:45:00;1.10;;;1.00;;
47545;SDS011;50104;52.002;4.688;2023-04-03T17:50:02;2.20;;;1.10;;
47545;SDS011;50104;52.002;4.688;2023-04-03T17:55:03;3.58;;;1.67;;
47545;SDS011;50104;52.002;4.688;2023-04-03T18:00:05;1.95;;;1.38;;
47545;SDS011;50104;52.002;4.688;2023-04-03T18:05:08;1.52;;;1.20;;
47545;SDS011;50104;52.002;4.688;2023-04-03T18:10:09;2.75;;;1.60;;
47545;SDS011;50104;52.002;4.688;2023-04-03T18:15:10;2.95;;;1.70;;
47545;SDS011;50104;52.002;4.688;2023-04-03T18:20:14;3.03;;;1.58;;
47545;SDS011;50104;52.002;4.688;2023-04-03T18:25:17;2.72;;;1.50;;
47545;SDS011;50104;52.002;4.688;2023-04-03T18:30:18;2.50;;;1.30;;
47545;SDS011;50104;52.002;4.688;2023-04-03T18:35:19;2.67;;;1.45;;
47545;SDS011;50104;52.002;4.688;2023-04-03T18:40:19;4.15;;;1.50;;
47545;SDS011;50104;52.002;4.688;2023-04-03T18:45:21;3.13;;;1.80;;
47545;SDS011;50104;52.002;4.688;2023-04-03T18:50:22;4.07;;;1.80;;
47545;SDS011;50104;52.002;4.688;2023-04-03T18:55:23;2.28;;;1.42;;
47545;SDS011;50104;52.002;4.688;2023-04-03T19:00:24;2.88;;;1.52;;
47545;SDS011;50104;52.002;4.688;2023-04-03T19:05:26;1.98;;;1.40;;
47545;SDS011;50104;52.002;4.688;2023-04-03T19:10:27;3.58;;;1.63;;
47545;SDS011;50104;52.002;4.688;2023-04-03T19:15:28;1.67;;;0.80;;
47545;SDS011;50104;52.002;4.688;2023-04-03T19:20:29;2.55;;;1.65;;
47545;SDS011;50104;52.002;4.688;2023-04-03T19:25:30;6.88;;;1.90;;
47545;SDS011;50104;52.002;4.688;2023-04-03T19:30:31;6.72;;;1.80;;
47545;SDS011;50104;52.002;4.688;2023-04-03T19:35:32;6.70;;;1.60;;
47545;SDS011;50104;52.002;4.688;2023-04-03T19:40:33;1.77;;;1.52;;
47545;SDS011;50104;52.002;4.688;2023-04-03T19:45:37;2.65;;;1.40;;
47545;SDS011;50104;52.002;4.688;2023-04-03T19:50:38;1.83;;;1.73;;
47545;SDS011;50104;52.002;4.688;2023-04-03T19:55:40;2.88;;;1.20;;
47545;SDS011;50104;52.002;4.688;2023-04-03T20:00:40;3.40;;;1.50;;
47545;SDS011;50104;52.002;4.688;2023-04-03T20:05:41;3.60;;;1.85;;
47545;SDS011;50104;52.002;4.688;2023-04-03T20:10:42;2.75;;;1.80;;
47545;SDS011;50104;52.002;4.688;2023-04-03T20:15:43;4.78;;;1.60;;
47545;SDS011;50104;52.002;4.688;2023-04-03T20:20:51;4.07;;;2.10;;
47545;SDS011;50104;52.002;4.688;2023-04-03T20:25:58;2.10;;;1.63;;
47545;SDS011;50104;52.002;4.688;2023-04-03T20:30:59;3.92;;;1.80;;
47545;SDS011;50104;52.002;4.688;2023-04-03T20:36:01;4.90;;;1.65;;
47545;SDS011;50104;52.002;4.688;2023-04-03T20:41:03;4.20;;;1.60;;
47545;SDS011;50104;52.002;4.688;2023-04-03T20:46:04;3.22;;;1.65;;
47545;SDS011;50104;52.002;4.688;2023-04-03T20:51:11;1.63;;;1.10;;
47545;SDS011;50104;52.002;4.688;2023-04-03T20:56:15;1.83;;;1.23;;
47545;SDS011;50104;52.002;4.688;2023-04-03T21:01:21;5.97;;;1.70;;
47545;SDS011;50104;52.002;4.688;2023-04-03T21:23:40;3.38;;;1.65;;
47545;SDS011;50104;52.002;4.688;2023-04-03T21:28:41;2.05;;;1.65;;
47545;SDS011;50104;52.002;4.688;2023-04-03T21:33:42;3.78;;;1.98;;
47545;SDS011;50104;52.002;4.688;2023-04-03T21:38:44;3.28;;;1.92;;
47545;SDS011;50104;52.002;4.688;2023-04-03T21:43:45;4.22;;;2.33;;
47545;SDS011;50104;52.002;4.688;2023-04-03T21:48:46;5.80;;;2.70;;
47545;SDS011;50104;52.002;4.688;2023-04-03T21:53:50;3.92;;;2.10;;
47545;SDS011;50104;52.002;4.688;2023-04-03T21:58:52;3.78;;;1.73;;
47545;SDS011;50104;52.002;4.688;2023-04-03T22:03:55;3.95;;;1.40;;
47545;SDS011;50104;52.002;4.688;2023-04-03T22:09:01;3.53;;;1.35;;
47545;SDS011;50104;52.002;4.688;2023-04-03T22:14:03;2.30;;;1.90;;
47545;SDS011;50104;52.002;4.688;2023-04-03T22:19:04;2.23;;;1.63;;
47545;SDS011;50104;52.002;4.688;2023-04-03T22:24:05;2.72;;;2.30;;
47545;SDS011;50104;52.002;4.688;2023-04-03T22:29:06;2.77;;;1.63;;
47545;SDS011;50104;52.002;4.688;2023-04-03T22:34:07;6.00;;;1.80;;
47545;SDS011;50104;52.002;4.688;2023-04-03T22:39:08;1.80;;;1.63;;
47545;SDS011;50104;52.002;4.688;2023-04-03T22:44:11;5.07;;;1.80;;
47545;SDS011;50104;52.002;4.688;2023-04-03T22:49:12;2.87;;;1.90;;
47545;SDS011;50104;52.002;4.688;2023-04-03T22:54:13;3.43;;;1.90;;
47545;SDS011;50104;52.002;4.688;2023-04-03T22:59:13;3.90;;;2.00;;
47545;SDS011;50104;52.002;4.688;2023-04-03T23:04:14;3.43;;;1.80;;
47545;SDS011;50104;52.002;4.688;2023-04-03T23:09:15;2.53;;;1.83;;
47545;SDS011;50104;52.002;4.688;2023-04-03T23:14:16;6.00;;;2.67;;
47545;SDS011;50104;52.002;4.688;2023-04-03T23:19:17;3.87;;;2.70;;
47545;SDS011;50104;52.002;4.688;2023-04-03T23:24:17;4.73;;;2.00;;
47545;SDS011;50104;52.002;4.688;2023-04-03T23:29:19;4.13;;;2.23;;
47545;SDS011;50104;52.002;4.688;2023-04-03T23:34:20;3.47;;;2.00;;
47545;SDS011;50104;52.002;4.688;2023-04-03T23:39:21;3.93;;;1.77;;
47545;SDS011;50104;52.002;4.688;2023-04-03T23:44:22;4.20;;;2.37;;
47545;SDS011;50104;52.002;4.688;2023-04-03T23:49:22;2.03;;;1.80;;
47545;SDS011;50104;52.002;4.688;2023-04-03T23:54:23;2.60;;;2.07;;
47545;SDS011;50104;52.002;4.688;2023-04-03T23:59:24;4.93;;;2.40;;
